Welcome to our Virtual Airline
Sign-in:

Flight MFC631

  • Submitted By: Doug Linn
  • Departure Airport: Hydaburg SPB (HYG)
  • Arrival Airport: Point Baker SPB (KPB)
  • Aircraft: AC500 (N050AK)
  • Flight Time: 00.48.24
  • Date Submitted: 2018/03/17
  • Route: FOLLOW THE TOUR FP
  • Status: Accepted
Flight Details
Gross Revenue:
(3 load / $ 52.00 per unit
$ 156.00
Fuel Cost:
(58.967 fuel used @ 5.1 / unit)
$ 300.73

Additional Log Information:

View Log

[16:19] ----- Flight Opened -----
[16:19] Cigar Box - 1.1.2.0
[16:19] FS: Prepar3D V4
[16:19] FSUIPC: v5.122
[16:19] Flight Number: MFC631
[16:19] FS Aircraft: DHC-2A N001MM New Misty Amphibian
[16:19] FS Model: DHC2
[16:19] FS Type: DeHavilland
[16:19] Departure: HYG
[16:19] Arrival: KPB
[16:19] Flight Level: 2500
[16:19] Flight Type: H
[16:19] Passengers: 3
[16:19] FOB: 405 lbs
[16:19] Gate: n/a
[16:19] NOTE: Parking Brake Ignored
[16:19] Crash Detection: Disabled
[16:19] Engines: 1 Piston
[16:19] NOTE: Boarding has started
[16:19] Main Door Closed
[16:19] COM1: 121.90
[16:19] COM2: 127.80
[16:19] Transponder: 0043
[16:19] NAV1: 110.90
[16:19] NAV2: 110.60
[16:19] ADF1: 254.0
[16:19] ADF2: 240.0
[16:19] Navigation Mode: GPS
[16:19] Navigation Mode: GPS
[16:19] Light Data: Navigation ON
[16:19] Light Data: Beacon ON
[16:19] Light Data: Landing lights ON
[16:19] Light Data: Taxi lights ON
[16:19] Light Data: Strobe lights ON
[16:19] Light Data: Instrument lights ON
[16:19] Light Data: Recognition lights ON
[16:19] Light Data: Wing lights ON
[16:19] Light Data: Logo lights ON
[16:19] Light Data: Cabin lights ON
[16:19] Engine 1: Started
[16:19] Flaps: Position 1
[16:20] NOTE: Taxi started
[16:20] NOTE: ----- TAKE OFF -----
[16:20] GS: 81 knots
[16:20] TAS: 75 knots
[16:20] IAS: 76 knots
[16:20] VS: 6 fpm
[16:20] FOB: 404 lbs
[16:20] Heading: 319°
[16:20] Pitch: 2°
[16:20] Bank: 0°
[16:20] Aircraft Weight: 4174.48 lbs
[16:20] Nearest Airport: HYG
[16:20] Distance: 0.46 miles
[16:20] Runway: ???
[16:20] Ground Surface: Water
[16:20] Ground Condition: Snow
[16:20] NOTE: Weather Report
[16:20] Wind Heading: 83°
[16:20] Wind Speed: 11 knots
[16:20] OAT: 9° C
[16:20] TAT: 9° C
[16:20] Precipitation: None
[16:20] Dew Point: -2° C
[16:20] Visibility: 28 miles
[16:20] METAR: No METAR available for HYG.
[16:20] Autopilot: Engaged
[16:20] AGL: 6 ft
[16:20] AMSL: 6 ft
[16:20] NOTE: Climb started
[16:20] View Mode: Virtual Cockpit
[16:20] Flaps: Position 0
[16:20] GS: 124 knots
[16:20] TAS: 120 knots
[16:20] IAS: 121 knots
[16:20] VS: 692 fpm
[16:23] NOTE: TOC reached
[16:23] NOTE: Cruise started
[16:23] GS: 136 knots
[16:23] TAS: 143 knots
[16:23] IAS: 140 knots
[16:23] VS: 193 fpm
[16:23] FOB: 389 lbs
[16:23] Heading: 356°
[16:23] Pitch: 0°
[16:23] Bank: 3°
[16:23] Aircraft Weight: 4159.20 lbs
[16:37] Recovery: Flight Saved
[16:41] NOTE: TOD reached
[16:41] NOTE: Descent started
[16:41] GS: 139 knots
[16:41] TAS: 128 knots
[16:41] IAS: 124 knots
[16:41] VS: -887 fpm
[16:41] FOB: 331 lbs
[16:41] Heading: 329°
[16:41] Pitch: 3°
[16:41] Bank: 0°
[16:41] Aircraft Weight: 4101.77 lbs
[16:41] NOTE: On approach
[16:56] Recovery: Flight Saved
[17:00] Flaps: Position 1
[17:00] GS: 79 knots
[17:00] TAS: 78 knots
[17:00] IAS: 78 knots
[17:00] VS: -675 fpm
[17:03] Flaps: Position 2
[17:03] GS: 85 knots
[17:03] TAS: 84 knots
[17:03] IAS: 83 knots
[17:03] VS: -382 fpm
[17:04] NOTE: ----- LANDED -----
[17:04] Landing Rate: -132.26 fpm
[17:04] GS: 48 knots
[17:04] TAS: 51 knots
[17:04] IAS: 51 knots
[17:04] VS: -132 fpm
[17:04] FOB: 278 lbs
[17:04] Heading: 55°
[17:04] Pitch: 5°
[17:04] Bank: 0°
[17:04] Aircraft Weight: 4048.33 lbs
[17:04] Nearest Airport: KPB
[17:04] Distance: 1.54 miles
[17:04] Runway: ???
[17:04] Ground Surface: Water
[17:04] Ground Condition: Snow
[17:04] NOTE: Weather Report
[17:04] Wind Heading: 81°
[17:04] Wind Speed: 2 knots
[17:04] OAT: 11° C
[17:04] TAT: 12° C
[17:04] Precipitation: None
[17:04] Dew Point: 2° C
[17:04] Visibility: 62 miles
[17:04] METAR: KPBF 171953Z AUTO 27012KT 10SM CLR 26/07 A2988 RMK AO2 SLP118 T02560067KPBG 171953Z AUTO 33013G21KT 10SM CLR M08/M21 A2984 RMK AO2 SLP110 T10781211KPBH 172035Z AUTO 00000KT 10SM CLR 09/M12 A2993 RMK AO2 T00851116KPBI 171953Z 13015KT 10SM SCT045 26/16 A3002 RMK AO2 SLP165 T02610156KPBX 172035Z AUTO 01011G14KT 10SM SCT070 SCT090 SCT110 16/10 A2974 RMK AO2 T01550100
[17:04] View Mode: Virtual Cockpit
[17:04] Flaps: Position 0
[17:04] NOTE: Taxi started
[17:08] Engine 1: Stopped
[17:08] Light Data: Navigation OFF
[17:08] Light Data: Beacon OFF
[17:08] Light Data: Landing lights OFF
[17:08] Light Data: Taxi lights OFF
[17:08] Light Data: Strobe lights OFF
[17:08] Light Data: Instrument lights OFF
[17:08] Light Data: Recognition lights OFF
[17:08] Light Data: Wing lights OFF
[17:08] Light Data: Logo lights OFF
[17:08] Light Data: Cabin lights OFF
[17:08] Gate: n/a
[17:08] NOTE: Flight Completed
[17:08] FS Aircraft: DHC-2A N001MM New Misty Amphibian
[17:08] FS Model: DHC2
[17:08] FS Type: DeHavilland
[17:08] FOB: 276 lbs
[17:08] Fuel Used: 130 lbs
[17:08] Flight Time: 00:48:24
[17:08] Flight Time (Dawn): 00:00:00
[17:08] Flight Time (Day): 00:48:24
[17:08] Flight Time (Dusk): 00:00:00
[17:08] Flight Time (Night): 00:00:00
[17:08] Total Landings: 1
[17:08] MaxSim Rate: 0x
[17:08] Cigar Box - 1.1.2.0
[17:08] ----- Flight Closed -----

Route Map